Time;durP1;ratioP1;P1;durP2;ratioP2;P2;SDS_P1;SDS_P2;PMS_P1;PMS_P2;Temp;Humidity;BMP_temperature;BMP_pressure;BME280_temperature;BME280_humidity;BME280_pressure;Samples;Min_cycle;Max_cycle;Signal;HPM_P1;HPM_P2
2022/06/06 00:00:45;;;;;;;7.95;4.57;;;;;;;14.96;100.00;96230.13;5070238;28;20044;-81
2022/06/06 00:03:13;;;;;;;10.85;5.20;;;;;;;14.87;100.00;96231.06;5069951;28;20044;-80
2022/06/06 00:05:42;;;;;;;9.73;5.03;;;;;;;14.85;100.00;96222.38;5070462;28;20406;-80
2022/06/06 00:08:11;;;;;;;8.93;4.55;;;;;;;14.87;100.00;96222.81;5069465;28;20052;-80
2022/06/06 00:10:38;;;;;;;8.85;4.65;;;;;;;14.88;100.00;96232.66;5069497;28;20036;-80
2022/06/06 00:13:07;;;;;;;7.47;4.72;;;;;;;14.92;100.00;96234.69;5068600;28;20048;-80
2022/06/06 00:15:34;;;;;;;7.88;4.68;;;;;;;14.91;100.00;96242.13;5069903;28;20040;-81
2022/06/06 00:18:02;;;;;;;6.07;4.65;;;;;;;14.90;100.00;96258.94;5062657;28;20415;-80
2022/06/06 00:20:30;;;;;;;7.78;4.93;;;;;;;14.87;100.00;96285.88;5073698;28;20045;-80
2022/06/06 00:22:57;;;;;;;6.60;4.35;;;;;;;14.81;100.00;96287.28;5073964;28;20154;-80
2022/06/06 00:25:24;;;;;;;8.20;4.80;;;;;;;14.77;100.00;96280.91;5074279;28;20654;-81
2022/06/06 00:27:50;;;;;;;8.35;4.80;;;;;;;14.77;100.00;96275.44;5075606;28;20048;-81
2022/06/06 00:30:17;;;;;;;8.05;4.60;;;;;;;14.79;100.00;96278.59;5074823;28;20664;-81
2022/06/06 00:35:40;;;;;;;7.60;5.30;;;;;;;14.79;100.00;96273.13;4992082;28;20401;-80
2022/06/06 00:38:07;;;;;;;7.95;4.88;;;;;;;14.83;100.00;96267.75;5054256;28;20049;-80
2022/06/06 00:40:34;;;;;;;7.68;4.68;;;;;;;14.87;100.00;96274.91;5074328;28;20049;-81
2022/06/06 00:43:03;;;;;;;7.93;4.38;;;;;;;14.83;100.00;96268.56;5074676;28;20044;-80
2022/06/06 00:45:36;;;;;;;8.85;4.85;;;;;;;14.82;100.00;96269.66;5073648;28;20044;-80
2022/06/06 00:48:21;;;;;;;7.47;5.28;;;;;;;14.83;100.00;96268.56;5074022;28;20072;-79
2022/06/06 00:50:57;;;;;;;8.68;4.70;;;;;;;14.82;100.00;96266.94;5073954;28;20040;-81
2022/06/06 00:53:33;;;;;;;5.35;3.78;;;;;;;14.81;100.00;96276.31;5056799;28;20048;-82
2022/06/06 00:56:06;;;;;;;6.68;5.13;;;;;;;14.74;100.00;96278.84;5087096;28;20048;-83
2022/06/06 00:58:45;;;;;;;7.72;4.57;;;;;;;14.66;100.00;96273.50;5058266;28;20052;-82
2022/06/06 01:01:12;;;;;;;6.60;4.68;;;;;;;14.68;100.00;96282.97;5084668;28;20430;-81
2022/06/06 01:03:41;;;;;;;7.55;4.85;;;;;;;14.73;100.00;96290.97;5084981;28;20057;-83
2022/06/06 01:06:14;;;;;;;9.90;5.72;;;;;;;14.63;100.00;96302.41;5056949;28;20044;-84
2022/06/06 01:08:44;;;;;;;8.90;4.80;;;;;;;14.66;100.00;96296.22;5077308;28;20059;-84
2022/06/06 01:11:11;;;;;;;8.23;5.30;;;;;;;14.68;100.00;96299.44;5093761;28;20049;-83
2022/06/06 01:13:41;;;;;;;10.23;5.40;;;;;;;14.68;100.00;96299.44;5092292;28;20048;-83
2022/06/06 01:16:17;;;;;;;9.63;5.30;;;;;;;14.62;100.00;96306.28;5090374;28;20067;-81
2022/06/06 01:18:58;;;;;;;8.32;4.40;;;;;;;14.62;100.00;96292.59;5089282;28;20043;-84
2022/06/06 01:34:53;;;;;;;8.13;4.93;;;;;;;14.53;100.00;96302.88;5133697;27;20405;-84
2022/06/06 01:37:29;;;;;;;7.75;5.22;;;;;;;14.49;100.00;96296.47;5130707;28;20107;-83
2022/06/06 01:39:57;;;;;;;8.00;5.13;;;;;;;14.50;100.00;96290.66;5131771;28;20045;-84
2022/06/06 01:42:32;;;;;;;7.55;5.22;;;;;;;14.55;100.00;96297.84;5093532;28;20123;-81
2022/06/06 01:45:06;;;;;;;9.50;4.47;;;;;;;14.49;100.00;96305.50;5125000;28;20039;-83
2022/06/06 01:47:39;;;;;;;9.15;5.10;;;;;;;14.38;100.00;96300.78;5094776;28;20411;-84
2022/06/06 01:50:12;;;;;;;9.82;4.80;;;;;;;14.38;100.00;96292.59;5130293;28;20055;-82
2022/06/06 01:53:01;;;;;;;9.15;4.95;;;;;;;14.27;100.00;96301.25;5127167;28;20044;-83
2022/06/06 01:55:30;;;;;;;7.18;4.80;;;;;;;14.28;100.00;96302.84;5092028;28;20059;-82
2022/06/06 01:58:00;;;;;;;7.85;5.43;;;;;;;14.07;100.00;96296.69;5095045;28;20036;-82
2022/06/06 02:00:27;;;;;;;7.85;4.85;;;;;;;14.09;100.00;96283.44;5093011;28;20040;-83
2022/06/06 02:02:54;;;;;;;9.25;5.00;;;;;;;14.07;100.00;96291.22;5093603;28;20044;-82
2022/06/06 02:05:22;;;;;;;10.65;5.80;;;;;;;13.93;100.00;96294.28;5092420;28;20075;-82
2022/06/06 02:07:49;;;;;;;10.48;5.38;;;;;;;13.87;100.00;96283.91;5092178;28;20036;-83
2022/06/06 02:10:18;;;;;;;6.18;4.88;;;;;;;13.89;100.00;96276.16;5089567;28;20068;-82
2022/06/06 02:12:48;;;;;;;10.00;4.85;;;;;;;13.98;100.00;96293.25;5089665;28;20040;-82
2022/06/06 02:15:18;;;;;;;9.88;5.15;;;;;;;13.87;100.00;96303.84;5092631;28;20054;-83
2022/06/06 02:17:45;;;;;;;7.97;4.95;;;;;;;13.89;100.00;96306.28;5086656;28;20036;-81
2022/06/06 02:20:14;;;;;;;5.85;4.78;;;;;;;13.81;100.00;96297.81;5100016;28;20056;-81
2022/06/06 02:22:44;;;;;;;7.28;4.65;;;;;;;13.76;100.00;96303.50;5091530;28;20048;-81
2022/06/06 02:25:12;;;;;;;7.78;4.47;;;;;;;13.74;100.00;96305.78;5080927;28;20055;-82
2022/06/06 02:27:41;;;;;;;6.07;4.47;;;;;;;13.87;100.00;96316.75;5108596;28;20040;-82
2022/06/06 02:30:12;;;;;;;9.88;4.78;;;;;;;13.90;100.00;96325.09;5099092;28;20446;-81
2022/06/06 02:32:39;;;;;;;7.50;4.57;;;;;;;13.98;100.00;96326.91;5092853;28;20040;-81
2022/06/06 02:35:07;;;;;;;6.30;4.38;;;;;;;14.05;100.00;96326.38;5101121;28;20122;-82
2022/06/06 02:37:34;;;;;;;8.48;4.47;;;;;;;14.13;100.00;96328.19;5087174;28;20040;-82
2022/06/06 02:40:06;;;;;;;7.25;4.55;;;;;;;14.12;100.00;96334.81;5091918;28;20488;-81
2022/06/06 02:42:45;;;;;;;7.28;4.93;;;;;;;14.21;100.00;96326.50;5085121;28;20053;-82
2022/06/06 02:45:15;;;;;;;7.90;4.60;;;;;;;14.16;100.00;96335.72;5071305;28;20057;-81
2022/06/06 02:47:45;;;;;;;6.90;4.70;;;;;;;14.20;100.00;96336.66;5091508;28;20052;-82
2022/06/06 02:50:12;;;;;;;6.68;4.28;;;;;;;14.25;100.00;96333.69;5059146;28;20036;-81
2022/06/06 02:52:39;;;;;;;10.82;4.72;;;;;;;14.29;100.00;96331.84;5075333;28;20166;-83
2022/06/06 02:55:09;;;;;;;7.25;4.95;;;;;;;14.27;100.00;96325.91;5093924;28;20070;-84
2022/06/06 02:57:38;;;;;;;6.55;4.68;;;;;;;14.32;100.00;96325.69;5084823;28;20044;-83
2022/06/06 03:00:06;;;;;;;8.30;4.68;;;;;;;14.36;100.00;96332.06;5095919;28;20029;-83
2022/06/06 03:05:15;;;;;;;7.43;4.80;;;;;;;14.44;100.00;96333.09;5092784;28;20052;-83
2022/06/06 03:07:55;;;;;;;6.30;4.53;;;;;;;14.45;100.00;96339.38;5095520;28;20052;-83
2022/06/06 03:10:52;;;;;;;5.68;4.78;;;;;;;14.44;100.00;96340.50;5081838;28;20056;-84
2022/06/06 03:13:30;;;;;;;5.53;4.38;;;;;;;14.47;100.00;96345.31;5091477;28;20048;-85
2022/06/06 03:22:05;;;;;;;;;;;;;;;14.50;100.00;96355.59;5094644;28;20046;-83
2022/06/06 03:24:52;;;;;;;8.35;4.95;;;;;;;14.47;100.00;96353.53;5096280;28;19920;-84
2022/06/06 03:27:27;;;;;;;9.15;4.00;;;;;;;14.49;100.00;96348.53;5096781;28;20048;-85
2022/06/06 03:30:04;;;;;;;7.72;4.80;;;;;;;14.48;100.00;96338.72;5097760;28;20045;-84
2022/06/06 03:32:44;;;;;;;5.70;4.28;;;;;;;14.57;100.00;96358.59;5096631;28;20031;-84
2022/06/06 03:35:21;;;;;;;8.52;4.82;;;;;;;14.58;100.00;96360.97;5109031;22;20031;-83
2022/06/06 03:37:54;;;;;;;6.13;4.47;;;;;;;14.60;100.00;96363.38;4997919;28;20057;-82
2022/06/06 03:40:30;;;;;;;5.90;4.32;;;;;;;14.63;100.00;96362.69;4995105;28;20045;-83
2022/06/06 03:43:04;;;;;;;8.90;4.80;;;;;;;14.62;100.00;96363.84;5012213;28;20109;-83
2022/06/06 03:45:42;;;;;;;6.45;4.45;;;;;;;14.66;100.00;96367.47;5015372;28;20030;-83
2022/06/06 03:59:35;;;;;;;9.40;5.15;;;;;;;14.17;100.00;96396.75;5226306;23;20055;-84
2022/06/06 04:02:05;;;;;;;6.70;4.95;;;;;;;14.06;100.00;96404.63;4977629;28;20054;-80
2022/06/06 04:04:34;;;;;;;8.15;4.75;;;;;;;13.86;100.00;96395.31;4994240;28;20070;-83
2022/06/06 04:07:05;;;;;;;6.88;4.63;;;;;;;13.97;100.00;96398.44;4993648;28;20054;-83
2022/06/06 04:09:33;;;;;;;13.43;5.65;;;;;;;13.84;100.00;96398.41;4995890;28;20031;-83
2022/06/06 04:12:11;;;;;;;7.18;4.97;;;;;;;13.82;100.00;96394.41;4991470;28;20050;-82
2022/06/06 04:15:05;;;;;;;6.40;4.18;;;;;;;13.89;100.00;96402.06;4972904;28;20046;-83
2022/06/06 04:20:31;;;;;;;6.70;5.38;;;;;;;13.93;100.00;96400.25;4995170;28;20077;-84
2022/06/06 04:23:14;;;;;;;9.50;5.03;;;;;;;14.03;100.00;96406.09;4995464;28;20066;-83
2022/06/06 04:25:52;;;;;;;6.05;4.60;;;;;;;14.12;100.00;96389.56;4972056;28;20110;-83
2022/06/06 04:28:39;;;;;;;6.47;5.10;;;;;;;14.17;100.00;96394.81;4998248;28;20038;-83
2022/06/06 04:31:25;;;;;;;7.40;5.32;;;;;;;14.25;100.00;96399.41;4994306;28;20055;-83
2022/06/06 04:34:03;;;;;;;6.82;4.65;;;;;;;14.34;100.00;96391.88;4991671;28;20046;-83
2022/06/06 04:36:34;;;;;;;6.93;4.63;;;;;;;14.38;100.00;96388.47;4983864;28;20022;-84
2022/06/06 04:39:08;;;;;;;10.82;5.45;;;;;;;14.47;100.00;96391.91;4996621;28;20098;-83
2022/06/06 04:41:44;;;;;;;5.72;4.65;;;;;;;14.51;100.00;96381.84;5014442;23;20110;-83
2022/06/06 04:44:20;;;;;;;6.03;4.22;;;;;;;14.57;100.00;96375.03;5042210;28;20045;-81
2022/06/06 04:46:53;;;;;;;7.03;4.90;;;;;;;14.65;100.00;96382.31;5014730;28;20072;-84
2022/06/06 04:49:23;;;;;;;9.85;5.30;;;;;;;14.59;100.00;96383.69;5043073;28;20054;-83
2022/06/06 04:51:51;;;;;;;7.45;5.07;;;;;;;14.63;100.00;96384.63;5034086;28;20048;-84
2022/06/06 04:54:24;;;;;;;8.07;5.03;;;;;;;14.63;100.00;96400.25;5034316;28;20106;-83
2022/06/06 04:56:53;;;;;;;5.15;4.28;;;;;;;14.73;100.00;96405.28;5033302;28;20030;-83
2022/06/06 04:59:23;;;;;;;6.68;4.70;;;;;;;14.78;100.00;96408.59;5034220;28;20106;-83
2022/06/06 05:01:55;;;;;;;6.10;4.63;;;;;;;14.86;100.00;96404.13;5035132;28;20037;-84
2022/06/06 05:04:25;;;;;;;8.88;4.45;;;;;;;14.80;100.00;96417.25;5034996;28;20058;-85
2022/06/06 05:07:04;;;;;;;5.90;4.75;;;;;;;14.91;100.00;96416.81;5036524;28;20105;-84
2022/06/06 05:09:50;;;;;;;8.20;4.75;;;;;;;14.83;100.00;96418.53;5017114;28;20056;-85
2022/06/06 05:12:34;;;;;;;6.18;4.45;;;;;;;14.76;100.00;96419.09;5022603;28;20045;-83
2022/06/06 05:15:14;;;;;;;8.43;4.80;;;;;;;14.70;100.00;96434.16;5033854;28;20050;-84
2022/06/06 05:17:59;;;;;;;5.93;3.80;;;;;;;14.86;100.00;96439.75;5046311;23;20043;-84
2022/06/06 05:24:16;;;;;;;8.73;4.20;;;;;;;15.03;100.00;96439.50;4977131;28;20099;-84
2022/06/06 05:27:04;;;;;;;5.15;3.72;;;;;;;15.03;100.00;96453.22;4977570;28;20038;-88
2022/06/06 05:29:57;;;;;;;5.85;3.50;;;;;;;15.06;100.00;96447.06;4969405;28;20034;-84
2022/06/06 05:32:57;;;;;;;6.60;4.45;;;;;;;14.91;100.00;96445.00;4957831;28;20047;-85
2022/06/06 05:35:38;;;;;;;5.50;3.97;;;;;;;15.02;100.00;96445.34;4974463;28;20050;-84
2022/06/06 05:38:18;;;;;;;9.60;3.85;;;;;;;15.11;100.00;96443.28;4972001;28;20115;-82
2022/06/06 05:40:51;;;;;;;5.80;4.20;;;;;;;15.17;100.00;96452.06;4968125;28;20043;-80
2022/06/06 05:43:31;;;;;;;9.02;4.40;;;;;;;15.24;100.00;96453.09;4946921;28;20058;-80
2022/06/06 05:46:13;;;;;;;6.28;3.90;;;;;;;15.36;100.00;96449.53;4947972;28;20054;-78
2022/06/06 05:49:00;;;;;;;7.10;3.50;;;;;;;15.22;99.04;96466.34;4947884;28;20043;-79
2022/06/06 05:51:38;;;;;;;5.55;3.80;;;;;;;15.43;97.76;96482.66;4947965;28;20046;-79
2022/06/06 05:54:15;;;;;;;5.88;3.95;;;;;;;15.60;97.86;96474.16;4948413;28;20517;-79
2022/06/06 05:57:02;;;;;;;5.10;3.67;;;;;;;15.71;98.52;96466.25;4954235;28;20050;-84
2022/06/06 06:00:03;;;;;;;5.05;3.67;;;;;;;15.69;98.21;96468.56;4968502;28;20047;-82
2022/06/06 06:03:03;;;;;;;4.40;3.50;;;;;;;15.79;98.44;96473.56;4960404;28;20139;-81
2022/06/06 06:05:40;;;;;;;4.43;3.40;;;;;;;15.88;98.27;96470.69;4957971;28;20039;-81
2022/06/06 06:08:23;;;;;;;8.73;3.90;;;;;;;15.89;97.88;96484.06;4953686;28;20669;-79
2022/06/06 06:10:59;;;;;;;7.78;3.72;;;;;;;15.88;96.28;96487.97;4948332;28;20554;-80
2022/06/06 06:13:53;;;;;;;6.90;3.03;;;;;;;15.94;94.04;96501.44;4956147;28;20549;-79
2022/06/06 06:16:24;;;;;;;5.55;3.33;;;;;;;15.82;92.63;96505.03;4951279;28;20059;-78
2022/06/06 06:18:55;;;;;;;7.43;3.88;;;;;;;15.78;92.99;96510.41;4968370;28;20042;-80
2022/06/06 06:21:26;;;;;;;6.68;3.17;;;;;;;15.99;92.18;96509.44;4972154;28;20047;-82
2022/06/06 06:23:58;;;;;;;6.50;3.33;;;;;;;15.89;92.69;96508.78;4987891;28;20058;-83
2022/06/06 06:26:30;;;;;;;3.88;2.97;;;;;;;16.12;92.77;96513.72;4989524;28;20051;-81
2022/06/06 06:29:00;;;;;;;6.35;3.50;;;;;;;16.17;93.95;96499.72;4979519;28;20130;-80
2022/06/06 06:31:42;;;;;;;7.03;3.80;;;;;;;16.09;91.41;96503.44;4972726;28;20055;-80
2022/06/06 06:34:28;;;;;;;5.45;3.42;;;;;;;16.26;90.52;96503.13;4968682;28;20091;-80
2022/06/06 06:37:06;;;;;;;5.50;3.40;;;;;;;16.31;92.35;96493.84;4987587;28;20050;-81
2022/06/06 06:39:50;;;;;;;5.68;3.55;;;;;;;16.28;90.92;96494.53;4987626;28;20042;-83
2022/06/06 06:42:34;;;;;;;7.53;3.50;;;;;;;16.38;91.62;96494.81;4984304;28;20031;-87
2022/06/06 06:45:07;;;;;;;6.40;4.15;;;;;;;16.19;91.96;96497.44;4989351;28;20047;-83
2022/06/06 06:47:35;;;;;;;;;;;;;;;16.22;93.41;96494.00;4987487;28;20039;-81
2022/06/06 06:50:10;;;;;;;6.40;3.80;;;;;;;16.40;93.57;96506.28;4976220;28;19929;-79
2022/06/06 06:52:54;;;;;;;6.22;4.25;;;;;;;16.24;89.06;96515.63;4975895;28;20046;-80
2022/06/06 06:55:42;;;;;;;6.15;3.28;;;;;;;16.48;89.90;96517.44;4977218;28;20043;-87
2022/06/06 06:58:34;;;;;;;5.55;3.75;;;;;;;16.65;91.25;96514.34;4969527;28;20046;-83
2022/06/06 07:01:04;;;;;;;5.32;4.15;;;;;;;16.73;92.03;96515.38;4984964;28;20106;-85
2022/06/06 07:09:51;;;;;;;5.60;3.58;;;;;;;17.07;87.60;96522.13;4999698;28;20449;-83
2022/06/06 07:12:29;;;;;;;5.15;3.63;;;;;;;17.09;87.52;96522.59;4972083;28;20051;-82
2022/06/06 07:15:08;;;;;;;5.28;3.38;;;;;;;17.22;86.49;96526.81;4977164;28;20046;-83
2022/06/06 07:17:41;;;;;;;5.00;3.53;;;;;;;17.26;86.05;96524.94;4966333;28;20058;-81
2022/06/06 07:20:11;;;;;;;7.80;3.85;;;;;;;17.35;87.66;96522.03;4975996;28;20054;-80
2022/06/06 07:25:24;;;;;;;4.90;3.58;;;;;;;17.43;83.59;96521.81;4974511;28;20054;-81
2022/06/06 07:27:51;;;;;;;4.97;3.70;;;;;;;17.41;85.47;96515.09;4979909;28;20053;-81
2022/06/06 07:30:21;;;;;;;4.78;3.50;;;;;;;17.31;84.66;96508.16;4978884;28;20062;-83
2022/06/06 07:33:00;;;;;;;6.40;3.80;;;;;;;17.40;85.00;96513.50;4980542;28;20077;-84
2022/06/06 07:35:39;;;;;;;5.03;3.28;;;;;;;17.48;84.33;96513.28;4972513;28;20043;-83
2022/06/06 07:38:19;;;;;;;6.78;3.45;;;;;;;17.57;82.34;96515.03;4977315;28;20042;-80
2022/06/06 07:41:02;;;;;;;6.57;4.13;;;;;;;17.67;87.60;96508.97;4960023;28;20066;-80
2022/06/06 07:43:59;;;;;;;6.28;4.25;;;;;;;17.68;85.94;96505.06;4959460;28;20066;-82
2022/06/06 07:46:55;;;;;;;5.30;3.70;;;;;;;17.83;84.06;96512.50;4976385;28;20070;-81
2022/06/06 07:49:34;;;;;;;7.97;4.18;;;;;;;17.99;86.65;96516.00;4986038;28;20062;-84
2022/06/06 07:52:07;;;;;;;4.88;3.58;;;;;;;18.12;87.12;96516.66;4987338;28;20038;-83
2022/06/06 07:54:48;;;;;;;4.85;3.40;;;;;;;18.08;84.47;96513.03;4972554;28;20057;-84
2022/06/06 07:57:24;;;;;;;5.47;4.35;;;;;;;18.23;86.26;96508.59;4977544;28;20049;-84
2022/06/06 08:00:01;;;;;;;5.75;3.60;;;;;;;18.47;81.62;96519.28;4991088;28;20042;-81
2022/06/06 08:02:52;;;;;;;4.00;2.90;;;;;;;18.57;83.59;96517.13;4984908;28;20058;-80
2022/06/06 08:05:37;;;;;;;4.45;3.20;;;;;;;18.74;81.75;96520.25;4984481;28;20051;-82
2022/06/06 08:08:10;;;;;;;8.18;3.40;;;;;;;18.89;81.44;96517.72;4965114;28;20055;-81
2022/06/06 08:10:41;;;;;;;4.25;2.60;;;;;;;18.81;79.92;96516.81;4955099;28;20070;-81
2022/06/06 08:13:31;;;;;;;6.53;4.05;;;;;;;18.77;78.62;96521.47;4970137;28;20061;-82
2022/06/06 08:16:15;;;;;;;5.53;3.08;;;;;;;18.66;77.02;96514.94;4970761;28;20097;-78
2022/06/06 08:18:59;;;;;;;3.63;2.70;;;;;;;18.89;76.86;96515.75;4969449;28;20042;-79
2022/06/06 08:21:33;;;;;;;6.80;3.20;;;;;;;18.94;75.72;96520.97;4961689;28;20055;-80
2022/06/06 08:24:03;;;;;;;5.40;3.47;;;;;;;18.88;74.41;96516.91;4975068;28;20055;-80
2022/06/06 08:26:33;;;;;;;5.78;3.00;;;;;;;18.84;72.74;96521.56;4978528;28;20196;-82
2022/06/06 08:29:02;;;;;;;3.45;2.65;;;;;;;18.91;72.58;96521.72;4979442;28;20051;-82
2022/06/06 08:31:30;;;;;;;3.38;2.50;;;;;;;18.92;72.04;96520.53;4978595;28;20548;-82
2022/06/06 08:33:58;;;;;;;3.88;2.97;;;;;;;19.01;71.80;96515.59;4972902;28;20046;-80
2022/06/06 08:36:38;;;;;;;5.40;2.40;;;;;;;19.03;64.93;96521.53;4968396;28;20525;-80
2022/06/06 08:39:15;;;;;;;6.00;2.50;;;;;;;19.19;66.43;96515.88;4966941;28;20050;-78
2022/06/06 08:42:19;;;;;;;3.75;2.80;;;;;;;19.45;68.24;96511.53;4961506;28;20062;-81
2022/06/06 08:45:07;;;;;;;3.78;2.35;;;;;;;19.37;63.30;96513.41;4964528;28;20063;-82
2022/06/06 08:47:49;;;;;;;5.40;2.58;;;;;;;19.26;65.54;96504.13;4949890;29;20051;-77
2022/06/06 08:50:47;;;;;;;3.97;2.60;;;;;;;19.31;68.59;96501.06;4947560;28;20454;-79
2022/06/06 08:53:59;;;;;;;3.95;2.80;;;;;;;19.31;72.38;96501.06;4946845;28;20047;-78
2022/06/06 08:56:53;;;;;;;4.47;2.92;;;;;;;19.52;72.60;96506.94;4947441;28;20051;-76
2022/06/06 08:59:45;;;;;;;8.43;3.00;;;;;;;19.80;74.22;96505.75;4947786;28;20058;-79
2022/06/06 09:02:48;;;;;;;5.43;3.22;;;;;;;19.93;73.71;96504.34;4945463;28;20078;-79
2022/06/06 09:05:36;;;;;;;3.67;2.67;;;;;;;19.99;72.78;96500.09;4947301;28;20057;-78
2022/06/06 09:08:34;;;;;;;4.53;3.20;;;;;;;20.24;77.86;96500.38;4946930;28;20074;-79
2022/06/06 09:11:34;;;;;;;4.78;2.90;;;;;;;20.54;74.25;96489.28;4947858;28;20062;-79
2022/06/06 09:14:25;;;;;;;4.65;2.85;;;;;;;20.34;68.81;96502.47;4930929;29;20054;-79
2022/06/06 09:17:33;;;;;;;4.97;2.60;;;;;;;20.25;69.41;96503.94;4933113;28;20043;-79
2022/06/06 09:20:30;;;;;;;5.80;2.83;;;;;;;20.04;66.71;96493.41;4951756;29;20047;-82
2022/06/06 09:23:38;;;;;;;6.40;2.47;;;;;;;20.12;69.00;96494.31;4948492;29;20070;-80
2022/06/06 09:26:21;;;;;;;6.63;3.22;;;;;;;20.02;67.14;96496.56;4949610;29;20043;-82
2022/06/06 09:29:22;;;;;;;6.22;2.80;;;;;;;20.10;69.49;96489.16;4949745;29;20047;-79
2022/06/06 09:32:19;;;;;;;4.15;2.75;;;;;;;19.76;69.51;96493.84;4965828;28;20482;-79
2022/06/06 09:35:20;;;;;;;3.53;2.50;;;;;;;20.00;70.09;96492.59;4968831;28;20050;-79
2022/06/06 09:38:11;;;;;;;5.60;2.72;;;;;;;20.17;64.59;96486.47;4969080;28;20043;-81
2022/06/06 09:40:56;;;;;;;3.60;2.53;;;;;;;20.29;63.17;96485.41;4956017;29;20039;-78
2022/06/06 09:43:33;;;;;;;4.35;2.80;;;;;;;20.10;62.74;96486.41;4964999;28;20053;-77
2022/06/06 09:46:31;;;;;;;3.42;2.60;;;;;;;20.58;70.72;96486.56;4970099;28;20039;-74
2022/06/06 09:49:44;;;;;;;2.95;2.40;;;;;;;20.98;65.35;96474.66;4970144;28;20042;-74
2022/06/06 09:52:45;;;;;;;3.33;2.50;;;;;;;21.20;64.06;96477.63;4969436;28;20101;-73
2022/06/06 09:59:04;;;;;;;5.93;2.58;;;;;;;21.45;63.33;96475.84;4969790;28;20173;-76
2022/06/06 10:02:14;;;;;;;2.83;2.20;;;;;;;21.56;62.15;96470.34;4969576;28;20529;-76
2022/06/06 10:05:24;;;;;;;6.18;2.70;;;;;;;20.98;57.80;96474.66;4970045;28;20051;-76
2022/06/06 10:08:22;;;;;;;6.30;2.83;;;;;;;21.34;62.36;96472.19;4969893;28;20046;-77
2022/06/06 10:11:34;;;;;;;5.57;2.50;;;;;;;21.74;64.33;96465.72;4964220;28;20046;-76
2022/06/06 10:14:16;;;;;;;3.63;2.60;;;;;;;21.78;63.00;96466.53;4890618;29;20052;-78
2022/06/06 10:17:17;;;;;;;6.47;3.17;;;;;;;21.65;61.89;96467.25;4943133;29;20412;-80
2022/06/06 10:19:58;;;;;;;4.63;2.38;;;;;;;21.68;60.43;96467.28;4909414;29;20535;-77
2022/06/06 10:22:54;;;;;;;3.80;2.58;;;;;;;21.77;60.16;96469.69;4949571;29;20055;-75
2022/06/06 10:25:36;;;;;;;6.07;2.45;;;;;;;21.82;60.97;96475.69;4946459;29;20055;-78
2022/06/06 10:28:20;;;;;;;3.63;2.20;;;;;;;22.14;61.89;96473.06;4949768;29;20040;-77
2022/06/06 10:31:00;;;;;;;3.60;2.60;;;;;;;21.98;56.96;96458.72;4950017;29;20063;-77
2022/06/06 10:34:11;;;;;;;3.47;2.70;;;;;;;22.08;62.37;96463.50;4949535;29;20621;-76
2022/06/06 10:36:58;;;;;;;8.00;2.70;;;;;;;21.92;57.35;96465.00;4950102;29;20051;-79
2022/06/06 10:40:13;;;;;;;3.20;2.22;;;;;;;21.86;60.45;96456.28;4949645;29;20055;-78
2022/06/06 10:42:58;;;;;;;4.55;2.60;;;;;;;21.62;57.69;96450.22;4964055;28;20070;-76
2022/06/06 10:45:31;;;;;;;6.22;2.72;;;;;;;21.51;59.92;96452.16;4968822;28;20050;-76
2022/06/06 10:48:46;;;;;;;4.32;2.60;;;;;;;21.40;66.68;96450.47;4969305;28;20058;-76
2022/06/06 10:51:49;;;;;;;5.13;2.83;;;;;;;21.75;62.84;96445.13;4968185;28;20074;-78
2022/06/06 10:54:46;;;;;;;4.15;2.22;;;;;;;;;;4967782;28;20714;-76
2022/06/06 10:57:55;;;;;;;2.97;2.55;;;;;;;22.19;63.34;96449.72;4968844;28;20043;-74
2022/06/06 11:00:30;;;;;;;3.47;2.30;;;;;;;22.39;59.61;96450.97;4962721;28;20058;-74
2022/06/06 11:03:20;;;;;;;2.55;2.10;;;;;;;22.49;59.60;96443.03;4968798;28;20046;-74
2022/06/06 11:06:16;;;;;;;4.38;2.25;;;;;;;22.52;63.75;96442.25;4968965;28;20053;-74
2022/06/06 11:09:42;;;;;;;4.95;2.58;;;;;;;22.52;57.45;96436.72;4968101;28;20043;-75
2022/06/06 11:12:44;;;;;;;3.05;2.10;;;;;;;22.30;55.54;96435.88;4966758;28;20490;-75
2022/06/06 11:15:10;;;;;;;5.65;2.60;;;;;;;22.14;57.37;96439.00;4966820;28;20152;-77
2022/06/06 11:18:16;;;;;;;3.83;2.25;;;;;;;22.25;58.44;96428.72;4968808;28;20039;-77
2022/06/06 11:21:27;;;;;;;4.95;2.53;;;;;;;22.18;56.72;96436.22;4958217;28;20049;-77
2022/06/06 11:24:00;;;;;;;4.15;2.58;;;;;;;22.24;57.01;96431.88;4968359;28;20044;-76
2022/06/06 11:26:45;;;;;;;;;;;;;;;22.50;58.45;96430.75;4968731;28;20042;-76
2022/06/06 11:29:37;;;;;;;3.38;1.92;;;;;;;22.60;56.94;96433.56;4954595;28;19926;-76
2022/06/06 11:32:28;;;;;;;3.40;2.45;;;;;;;22.45;53.54;96425.59;4967706;28;20055;-76
2022/06/06 11:35:22;;;;;;;3.92;2.05;;;;;;;22.38;54.24;96423.59;4968366;28;20070;-76
2022/06/06 11:38:43;;;;;;;4.35;2.20;;;;;;;21.84;58.31;96423.41;4967946;28;20074;-76
2022/06/06 11:41:23;;;;;;;4.15;2.17;;;;;;;22.18;58.17;96414.81;4965852;28;20498;-76
2022/06/06 11:44:10;;;;;;;3.25;2.05;;;;;;;22.24;63.57;96412.47;4967727;28;20063;-75
2022/06/06 11:47:14;;;;;;;5.18;2.60;;;;;;;22.26;58.81;96407.34;4965459;28;20592;-78
2022/06/06 11:50:14;;;;;;;3.13;2.28;;;;;;;22.38;58.46;96409.72;4947352;28;20137;-76
2022/06/06 11:53:26;;;;;;;5.18;2.20;;;;;;;22.53;59.39;96402.22;4960155;28;20138;-76
2022/06/06 11:56:05;;;;;;;3.92;2.55;;;;;;;22.22;58.51;96401.75;4940169;28;20053;-77
2022/06/06 11:59:03;;;;;;;3.65;2.30;;;;;;;22.03;61.08;96397.34;4967293;28;20135;-76
2022/06/06 12:02:05;;;;;;;4.13;2.53;;;;;;;22.24;61.43;96393.03;4967033;28;20051;-75
2022/06/06 12:05:15;;;;;;;3.97;2.25;;;;;;;22.21;58.93;96388.28;4967682;28;20046;-76
2022/06/06 12:08:26;;;;;;;4.40;2.25;;;;;;;22.12;60.56;96381.13;4966991;28;20501;-76
2022/06/06 12:11:15;;;;;;;5.20;2.55;;;;;;;21.82;57.71;96378.66;4951543;28;20450;-76
2022/06/06 12:14:06;;;;;;;5.63;2.30;;;;;;;22.01;60.02;96388.59;4948082;29;20046;-76
2022/06/06 12:16:40;;;;;;;3.72;2.08;;;;;;;22.15;54.52;96379.56;4948131;29;20047;-76
2022/06/06 12:19:23;;;;;;;2.92;2.00;;;;;;;22.06;57.42;96376.34;4947378;29;20055;-76
2022/06/06 12:22:11;;;;;;;4.57;2.13;;;;;;;21.82;55.66;96372.28;4947888;29;20047;-76
2022/06/06 12:25:16;;;;;;;3.70;2.38;;;;;;;21.83;58.19;96376.69;4947933;29;20069;-78
2022/06/06 12:28:11;;;;;;;3.85;2.13;;;;;;;21.87;56.33;96369.97;4957047;28;20055;-75
2022/06/06 12:31:01;;;;;;;5.20;2.35;;;;;;;21.88;59.63;96370.75;4966173;28;20057;-76
2022/06/06 12:33:33;;;;;;;6.13;2.58;;;;;;;21.79;62.66;96362.78;4966055;28;20105;-76
2022/06/06 12:36:08;;;;;;;3.72;2.35;;;;;;;21.90;62.76;96362.84;4967029;28;20129;-76
2022/06/06 12:38:48;;;;;;;4.40;2.53;;;;;;;21.62;59.40;96358.00;4966270;28;20651;-76
2022/06/06 12:41:40;;;;;;;3.75;2.10;;;;;;;21.63;57.71;96356.81;4965083;28;20051;-76
2022/06/06 12:44:35;;;;;;;6.30;2.42;;;;;;;21.74;60.15;96360.41;4958135;28;20047;-77
2022/06/06 12:47:23;;;;;;;4.38;2.00;;;;;;;21.84;55.86;96359.66;4966167;28;20057;-75
2022/06/06 12:50:03;;;;;;;4.72;2.45;;;;;;;21.94;54.16;96363.66;4966642;28;20053;-77
2022/06/06 12:53:12;;;;;;;6.00;2.22;;;;;;;22.03;60.10;96361.28;4965873;28;20069;-76
2022/06/06 12:56:12;;;;;;;4.35;2.10;;;;;;;22.09;60.50;96359.72;4966482;28;20583;-76
2022/06/06 12:58:42;;;;;;;4.78;2.30;;;;;;;22.17;56.31;96354.22;4966197;28;20125;-79
2022/06/06 13:04:23;;;;;;;3.83;2.20;;;;;;;22.41;59.90;96353.47;4966449;28;20069;-77
2022/06/06 13:07:00;;;;;;;3.95;2.25;;;;;;;22.69;58.95;96351.88;4966482;28;20047;-76
2022/06/06 13:09:53;;;;;;;5.75;2.70;;;;;;;22.22;54.19;96351.03;4966643;28;20537;-77
2022/06/06 13:12:45;;;;;;;4.10;2.10;;;;;;;22.47;57.92;96351.88;4964891;28;20050;-77
2022/06/06 13:15:17;;;;;;;2.95;2.30;;;;;;;22.45;58.46;96348.72;4966075;28;20046;-76
2022/06/06 13:17:57;;;;;;;5.00;2.00;;;;;;;22.54;53.91;96335.22;4966667;28;20059;-76
2022/06/06 13:20:39;;;;;;;3.88;1.95;;;;;;;22.70;54.33;96332.03;4966140;28;20059;-78
2022/06/06 13:23:28;;;;;;;3.10;2.03;;;;;;;22.96;53.41;96328.06;4965821;28;20043;-76
2022/06/06 13:26:11;;;;;;;5.47;3.20;;;;;;;22.92;54.81;96322.53;4966227;28;20066;-76
2022/06/06 13:28:49;;;;;;;3.85;2.30;;;;;;;22.89;54.61;96317.78;4966316;28;20054;-76
2022/06/06 13:31:33;;;;;;;8.48;2.13;;;;;;;22.64;55.62;96323.31;4966014;28;20046;-76
2022/06/06 13:34:15;;;;;;;3.63;2.10;;;;;;;22.54;56.63;96312.22;4965909;28;20125;-78
2022/06/06 13:37:03;;;;;;;3.60;2.10;;;;;;;22.70;56.84;96309.81;4965482;28;20066;-77